Ilha Comprida, Brazil
Current Conditions -  °F | °C
As of 8:00 AM on Tuesday 21 Oct 2014 (Local Time) from SBCT Reporting Station
Scattered Clouds Scattered Clouds  
Wind Chill: 54°   Ceiling: Unl
Heat Index: 54°   Visibility: 6mi
Dew Point: 50°   Wind: 7mph
Humidity: 88%   Direction: 110°ESE
Pressure: 30.24"   Gusts: NA
Location:  24.88°S, 47.69°W
Report Text: SBCT 211000Z 11006KT 9999 FEW013 SCT040 12/10 Q1024
Loading
Personal Weather Stations






























Interactive Weather Map
Tropical Storm Tracking
New forecast layout! Learn more

10-Day Weather Forecast

Advertisements
Track Severe Weather on mobile